| time (UTC) | temp C | wind direction | speed KPH | gust KPH | rain 1hr cm | rain 24hr cm | rain mn cm | humidity % | barometer mb |
| 20260507060512 | 8 | 202 | 0.0 | 0.0 | 0.00 | 0.61 | 0.61 | 91 | 1011.7 |
| 20260507055511 | 8 | 241 | 0.0 | 0.0 | 0.00 | 0.61 | 0.61 | 90 | 1011.5 |
| 20260507054512 | 8 | 188 | 0.0 | 0.0 | 0.00 | 0.61 | 0.61 | 90 | 1011.4 |
| 20260507053511 | 8 | 221 | 0.0 | 0.0 | 0.00 | 0.61 | 0.61 | 90 | 1011.4 |
| 20260507052511 | 8 | 189 | 0.0 | 0.0 | 0.00 | 0.61 | 0.61 | 90 | 1011.3 |
| 20260507051511 | 8 | 214 | 0.0 | 0.0 | 0.00 | 0.61 | 0.61 | 90 | 1011.2 |
| 20260507050511 | 7 | 244 | 0.0 | 0.0 | 0.00 | 0.61 | 0.61 | 90 | 1011.0 |
| 20260507045512 | 7 | 197 | 0.0 | 0.0 | 0.00 | 0.61 | 0.61 | 90 | 1011.0 |
| 20260507044511 | 7 | 202 | 0.0 | 0.0 | 0.00 | 0.61 | 0.61 | 90 | 1010.9 |
| 20260507043511 | 7 | 248 | 0.0 | 0.0 | 0.00 | 0.61 | 0.61 | 90 | 1010.7 |
| 20260507042510 | 7 | 240 | 0.0 | 0.0 | 0.00 | 0.61 | 0.61 | 90 | 1010.5 |
| 20260507041510 | 7 | 219 | 0.0 | 0.0 | 0.00 | 0.61 | 0.61 | 90 | 1010.5 |
| 20260507040510 | 7 | 219 | 0.0 | 0.0 | 0.00 | 0.61 | 0.61 | 90 | 1010.4 |
| 20260507035510 | 7 | 226 | 0.0 | 0.0 | 0.00 | 0.61 | 0.61 | 90 | 1010.3 |
| 20260507034510 | 7 | 227 | 0.0 | 0.0 | 0.00 | 0.61 | 0.61 | 90 | 1010.3 |
| 20260507033510 | 6 | 228 | 0.0 | 0.0 | 0.00 | 0.61 | 0.61 | 90 | 1010.2 |
| 20260507032510 | 6 | 229 | 0.0 | 0.0 | 0.00 | 0.61 | 0.61 | 90 | 1010.1 |
| 20260507030510 | 6 | 201 | 0.0 | 0.0 | 0.00 | 0.61 | 0.61 | 90 | 1009.9 |
| 20260507025510 | 6 | 215 | 0.0 | 0.0 | 0.00 | 0.61 | 0.61 | 90 | 1009.9 |
| 20260507024510 | 7 | 219 | 0.0 | 0.0 | 0.00 | 0.61 | 0.61 | 90 | 1010.0 |
| 20260507023510 | 7 | 242 | 0.0 | 0.0 | 0.00 | 0.61 | 0.61 | 90 | 1009.7 |
| 20260507022511 | 7 | 189 | 0.0 | 0.0 | 0.00 | 0.61 | 0.61 | 90 | 1009.7 |
| 20260507021510 | 7 | 221 | 0.0 | 0.0 | 0.00 | 0.61 | 0.61 | 90 | 1009.7 |
| 20260507020510 | 7 | 205 | 0.0 | 0.0 | 0.00 | 0.61 | 0.61 | 90 | 1009.7 |
| 20260507015510 | 7 | 209 | 0.0 | 0.0 | 0.00 | 0.61 | 0.61 | 90 | 1009.6 |
| 20260507014510 | 7 | 230 | 0.0 | 0.0 | 0.00 | 0.61 | 0.61 | 90 | 1009.5 |
| 20260507013510 | 7 | 215 | 0.0 | 0.0 | 0.00 | 0.61 | 0.61 | 90 | 1009.5 |
| 20260507012511 | 7 | 198 | 0.0 | 0.0 | 0.00 | 0.61 | 0.61 | 90 | 1009.6 |
| 20260507011510 | 7 | 232 | 0.0 | 0.0 | 0.00 | 0.61 | 0.61 | 90 | 1009.4 |
| 20260507010510 | 7 | 211 | 0.0 | 0.0 | 0.00 | 0.61 | 0.61 | 90 | 1009.3 |
| 20260507005510 | 7 | 208 | 0.0 | 0.0 | 0.61 | 0.61 | 0.61 | 90 | 1009.4 |
| 20260507004510 | 7 | 198 | 0.0 | 0.0 | 0.61 | 0.61 | 0.61 | 90 | 1009.3 |
| 20260507003510 | 7 | 215 | 0.0 | 0.0 | 0.61 | 0.61 | 0.61 | 90 | 1009.4 |
| 20260507002511 | 7 | 207 | 0.0 | 0.0 | 0.61 | 0.61 | 0.61 | 90 | 1009.4 |
| 20260507001510 | 7 | 191 | 0.0 | 0.0 | 0.61 | 0.61 | 0.61 | 90 | 1009.3 |
| 20260507000510 | 7 | 191 | 0.0 | 0.0 | 0.61 | 0.61 | 0.61 | 90 | 1009.4 |
| 20260506235510 | 7 | 190 | 0.0 | 0.0 | 0.00 | 0.00 | 0.00 | 89 | 1009.3 |
| 20260506233510 | 7 | 205 | 0.0 | 0.0 | 0.00 | 0.00 | 0.00 | 89 | 1009.3 |
| 20260506231510 | 7 | 205 | 0.0 | 0.0 | 0.00 | 0.00 | 0.00 | 88 | 1009.3 |
| 20260506230510 | 7 | 205 | 0.0 | 0.0 | 0.00 | 0.00 | 0.00 | 89 | 1009.3 |
| 20260506225510 | 8 | 194 | 0.0 | 0.0 | 0.00 | 0.00 | 0.00 | 88 | 1009.3 |
| 20260506224510 | 8 | 203 | 0.0 | 0.0 | 0.00 | 0.00 | 0.00 | 88 | 1009.3 |
| 20260506223510 | 8 | 204 | 0.0 | 0.0 | 0.00 | 0.00 | 0.00 | 88 | 1009.2 |
| 20260506222510 | 8 | 190 | 0.0 | 0.0 | 0.00 | 0.00 | 0.00 | 88 | 1009.2 |
| 20260506221524 | 8 | 200 | 0.0 | 0.0 | 0.00 | 0.00 | 0.00 | 88 | 1009.1 |
| 20260506215510 | 8 | 196 | 0.0 | 0.0 | 0.00 | 1.14 | 1.14 | 88 | 1009.0 |
| 20260506214510 | 8 | 194 | 0.0 | 0.0 | 0.00 | 1.14 | 1.14 | 88 | 1008.8 |
| 20260506213511 | 8 | 186 | 0.0 | 0.0 | 0.00 | 1.14 | 1.14 | 88 | 1008.8 |
| 20260506211510 | 8 | 185 | 0.0 | 0.0 | 0.00 | 1.14 | 1.14 | 88 | 1008.6 |
| 20260506210510 | 8 | 194 | 0.0 | 0.0 | 0.00 | 1.14 | 1.14 | 88 | 1008.6 |
| 20260506205510 | 8 | 184 | 0.0 | 0.0 | 0.00 | 1.14 | 1.14 | 88 | 1008.4 |
| 20260506204511 | 8 | 206 | 0.0 | 0.0 | 0.00 | 1.14 | 1.14 | 88 | 1008.5 |
| 20260506203510 | 8 | 182 | 0.0 | 0.0 | 0.00 | 1.14 | 1.14 | 88 | 1008.6 |
| 20260506202510 | 8 | 212 | 0.0 | 0.0 | 0.00 | 1.14 | 1.14 | 88 | 1008.5 |
| 20260506201510 | 8 | 202 | 0.0 | 4.8 | 0.00 | 1.14 | 1.14 | 88 | 1008.5 |
| 20260506194510 | 8 | 223 | 0.0 | 14.5 | 0.00 | 1.14 | 1.14 | 88 | 1008.4 |
| 20260506193510 | 8 | 195 | 0.0 | 1.6 | 0.00 | 1.14 | 1.14 | 88 | 1008.0 |
| 20260506192510 | 8 | 200 | 0.0 | 0.0 | 0.00 | 1.14 | 1.14 | 88 | 1007.9 |
| 20260506191510 | 8 | 198 | 0.0 | 0.0 | 0.00 | 1.14 | 1.14 | 89 | 1007.9 |
| 20260506190510 | 8 | 207 | 0.0 | 0.0 | 0.00 | 1.14 | 1.14 | 89 | 1007.7 |
| 20260506185510 | 9 | 223 | 0.0 | 0.0 | 0.00 | 1.14 | 1.14 | 89 | 1007.5 |
| 20260506184510 | 9 | 212 | 0.0 | 0.0 | 0.00 | 1.14 | 1.14 | 89 | 1007.5 |
| 20260506183510 | 9 | 215 | 0.0 | 0.0 | 0.00 | 1.14 | 1.14 | 89 | 1007.2 |
| 20260506181510 | 9 | 211 | 0.0 | 1.6 | 0.00 | 1.14 | 1.14 | 89 | 1007.2 |
| 20260506180511 | 9 | 232 | 0.0 | 4.8 | 0.00 | 1.14 | 1.14 | 89 | 1007.0 |
| 20260506175523 | 9 | 250 | 0.0 | 0.0 | 0.00 | 1.14 | 1.14 | 89 | 1006.9 |
| 20260506174510 | 9 | 192 | 0.0 | 0.0 | 0.00 | 1.14 | 1.14 | 89 | 1006.7 |
| 20260506173510 | 9 | 227 | 0.0 | 0.0 | 0.00 | 1.14 | 1.14 | 88 | 1006.7 |
| 20260506172510 | 9 | 194 | 0.0 | 4.8 | 0.03 | 1.14 | 1.14 | 88 | 1006.5 |
| 20260506171510 | 10 | 218 | 0.0 | 1.6 | 0.05 | 1.14 | 1.14 | 89 | 1006.4 |
| 20260506164510 | 9 | 236 | 0.0 | 0.0 | 0.05 | 1.14 | 1.14 | 88 | 1006.1 |
| 20260506163510 | 9 | 225 | 0.0 | 0.0 | 0.30 | 1.14 | 1.14 | 88 | 1006.1 |
| 20260506162510 | 10 | 234 | 0.0 | 0.0 | 0.33 | 1.12 | 1.12 | 88 | 1006.1 |
| 20260506161511 | 10 | 251 | 0.0 | 0.0 | 0.99 | 1.09 | 1.09 | 87 | 1006.0 |
| 20260506160511 | 10 | 250 | 0.0 | 0.0 | 1.07 | 1.09 | 1.09 | 86 | 1006.0 |
| 20260506155510 | 10 | 199 | 0.0 | 0.0 | 1.07 | 1.09 | 1.09 | 86 | 1006.0 |
| 20260506154510 | 11 | 278 | 0.0 | 0.0 | 1.07 | 1.09 | 1.09 | 85 | 1006.0 |
| 20260506153510 | 11 | 230 | 0.0 | 0.0 | 0.79 | 0.84 | 0.84 | 83 | 1005.7 |
| 20260506152510 | 12 | 222 | 0.0 | 38.6 | 0.74 | 0.79 | 0.79 | 80 | 1005.2 |
| 20260506151510 | 15 | 192 | 30.6 | 43.5 | 0.08 | 0.13 | 0.13 | 72 | 1004.6 |
| 20260506150510 | 16 | 223 | 3.2 | 8.0 | 0.00 | 0.05 | 0.05 | 65 | 1003.7 |
| 20260506145510 | 16 | 200 | 0.0 | 9.7 | 0.00 | 0.05 | 0.05 | 64 | 1003.4 |
| 20260506143510 | 18 | 152 | 3.2 | 11.3 | 0.00 | 0.05 | 0.05 | 63 | 1003.6 |
| 20260506142510 | 18 | 192 | 4.8 | 11.3 | 0.00 | 0.05 | 0.05 | 61 | 1003.6 |
| 20260506141510 | 17 | 244 | 0.0 | 9.7 | 0.03 | 0.05 | 0.05 | 66 | 1003.6 |
| 20260506140510 | 16 | 258 | 0.0 | 6.4 | 0.03 | 0.05 | 0.05 | 73 | 1003.6 |
| 20260506135510 | 16 | 258 | 0.0 | 0.0 | 0.03 | 0.05 | 0.05 | 73 | 1003.7 |
| 20260506134510 | 16 | 258 | 0.0 | 6.4 | 0.03 | 0.05 | 0.05 | 71 | 1003.9 |
| 20260506133510 | 16 | 258 | 0.0 | 0.0 | 0.03 | 0.05 | 0.05 | 70 | 1004.1 |
| 20260506132510 | 16 | 258 | 0.0 | 0.0 | 0.03 | 0.05 | 0.05 | 69 | 1004.1 |
| 20260506131510 | 17 | 259 | 0.0 | 9.7 | 0.00 | 0.03 | 0.03 | 64 | 1004.0 |
| 20260506130510 | 17 | 261 | 3.2 | 8.0 | 0.00 | 0.03 | 0.03 | 64 | 1003.9 |
| 20260506125510 | 17 | 261 | 6.4 | 9.7 | 0.00 | 0.03 | 0.03 | 65 | 1003.8 |
| 20260506124510 | 17 | 299 | 0.0 | 8.0 | 0.00 | 0.03 | 0.03 | 66 | 1003.8 |
| 20260506123510 | 17 | 298 | 3.2 | 8.0 | 0.00 | 0.03 | 0.03 | 66 | 1003.7 |
| 20260506122510 | 17 | 300 | 0.0 | 8.0 | 0.00 | 0.03 | 0.03 | 66 | 1003.7 |
| 20260506121510 | 17 | 298 | 0.0 | 8.0 | 0.00 | 0.03 | 0.03 | 66 | 1003.8 |
| 20260506120510 | 17 | 296 | 0.0 | 9.7 | 0.00 | 0.03 | 0.03 | 65 | 1003.7 |
| 20260506115510 | 17 | 304 | 3.2 | 8.0 | 0.00 | 0.03 | 0.03 | 65 | 1003.8 |
| 20260506114510 | 17 | 294 | 0.0 | 8.0 | 0.00 | 0.03 | 0.03 | 64 | 1003.9 |
| 20260506113510 | 17 | 315 | 0.0 | 12.9 | 0.00 | 0.03 | 0.03 | 64 | 1003.9 |
| 20260506111510 | 17 | 313 | 6.4 | 9.7 | 0.00 | 0.03 | 0.03 | 64 | 1003.9 |
| 20260506110510 | 17 | 317 | 4.8 | 8.0 | 0.00 | 0.03 | 0.03 | 69 | 1004.1 |
| 20260506104511 | 16 | 355 | 3.2 | 12.9 | 0.00 | 0.03 | 0.03 | 69 | 1004.2 |
| 20260506103510 | 16 | 335 | 6.4 | 11.3 | 0.00 | 0.03 | 0.03 | 68 | 1004.3 |
| 20260506102510 | 16 | 317 | 4.8 | 9.7 | 0.00 | 0.03 | 0.03 | 68 | 1004.4 |
| 20260506101510 | 16 | 242 | 0.0 | 0.0 | 0.00 | 0.03 | 0.03 | 66 | 1004.8 |
| 20260506100510 | 16 | 173 | 0.0 | 0.0 | 0.00 | 0.03 | 0.03 | 66 | 1004.9 |
| 20260506095510 | 16 | 173 | 0.0 | 0.0 | 0.00 | 0.03 | 0.03 | 67 | 1004.9 |
| 20260506094510 | 16 | 173 | 0.0 | 0.0 | 0.00 | 0.03 | 0.03 | 66 | 1004.9 |
| 20260506093510 | 16 | 173 | 0.0 | 0.0 | 0.00 | 0.03 | 0.03 | 68 | 1004.9 |
| 20260506092510 | 16 | 173 | 0.0 | 0.0 | 0.00 | 0.03 | 0.03 | 68 | 1004.9 |
| 20260506091510 | 16 | 173 | 0.0 | 0.0 | 0.00 | 0.03 | 0.03 | 70 | 1004.9 |
| 20260506090510 | 15 | 173 | 0.0 | 0.0 | 0.00 | 0.03 | 0.03 | 71 | 1004.9 |
| 20260506085510 | 15 | 173 | 0.0 | 0.0 | 0.00 | 0.03 | 0.03 | 74 | 1004.9 |
| 20260506084510 | 14 | 173 | 0.0 | 0.0 | 0.00 | 0.03 | 0.03 | 75 | 1004.8 |
| 20260506081510 | 13 | 173 | 0.0 | 0.0 | 0.00 | 0.03 | 0.03 | 79 | 1004.9 |
| 20260506080510 | 13 | 173 | 0.0 | 0.0 | 0.00 | 0.03 | 0.03 | 79 | 1004.9 |
| 20260506073510 | 12 | 173 | 0.0 | 0.0 | 0.00 | 0.03 | 0.03 | 84 | 1005.1 |
| 20260506072510 | 12 | 173 | 0.0 | 0.0 | 0.00 | 0.03 | 0.03 | 85 | 1005.4 |
| 20260506071510 | 12 | 173 | 0.0 | 0.0 | 0.00 | 0.03 | 0.03 | 87 | 1005.5 |
| 20260506070510 | 12 | 173 | 0.0 | 0.0 | 0.00 | 0.03 | 0.03 | 88 | 1005.4 |
| 20260506062510 | 10 | 173 | 0.0 | 0.0 | 0.00 | 0.03 | 0.03 | 91 | 1005.0 |
| 20260506061510 | 10 | 173 | 0.0 | 0.0 | 0.00 | 0.03 | 0.03 | 91 | 1005.3 |